sensor_id;sensor_type;location;lat;lon;timestamp;pressure;altitude;pressure_sealevel;temperature;humidity
75699;BME280;64313;51.018;13.742;2023-11-21T00:00:24;98938.63;;;9.13;73.49
75699;BME280;64313;51.018;13.742;2023-11-21T00:02:50;98938.63;;;9.13;73.76
75699;BME280;64313;51.018;13.742;2023-11-21T00:05:15;98934.59;;;9.11;73.33
75699;BME280;64313;51.018;13.742;2023-11-21T00:07:42;98946.84;;;9.12;73.77
75699;BME280;64313;51.018;13.742;2023-11-21T00:10:08;98936.44;;;9.10;73.26
75699;BME280;64313;51.018;13.742;2023-11-21T00:12:36;98947.88;;;9.11;73.77
75699;BME280;64313;51.018;13.742;2023-11-21T00:15:02;98939.09;;;9.10;73.79
75699;BME280;64313;51.018;13.742;2023-11-21T00:17:28;98935.63;;;9.10;73.72
75699;BME280;64313;51.018;13.742;2023-11-21T00:19:53;98946.47;;;9.08;73.64
75699;BME280;64313;51.018;13.742;2023-11-21T00:22:19;98940.31;;;9.08;74.08
75699;BME280;64313;51.018;13.742;2023-11-21T00:24:45;98946.47;;;9.08;74.23
75699;BME280;64313;51.018;13.742;2023-11-21T00:27:10;98950.97;;;9.08;74.17
75699;BME280;64313;51.018;13.742;2023-11-21T00:29:35;98946.66;;;9.07;73.98
75699;BME280;64313;51.018;13.742;2023-11-21T00:32:01;98949.34;;;9.07;74.56
75699;BME280;64313;51.018;13.742;2023-11-21T00:34:27;98947.72;;;9.06;74.24
75699;BME280;64313;51.018;13.742;2023-11-21T00:36:53;98948.53;;;9.06;74.40
75699;BME280;64313;51.018;13.742;2023-11-21T00:39:19;98953.84;;;9.06;74.16
75699;BME280;64313;51.018;13.742;2023-11-21T00:41:45;98949.56;;;9.05;74.05
75699;BME280;64313;51.018;13.742;2023-11-21T00:44:11;98959.16;;;9.06;74.27
75699;BME280;64313;51.018;13.742;2023-11-21T00:46:36;98953.03;;;9.06;74.38
75699;BME280;64313;51.018;13.742;2023-11-21T00:49:02;98961.22;;;9.04;74.78
75699;BME280;64313;51.018;13.742;2023-11-21T00:51:29;98964.94;;;9.03;74.15
75699;BME280;64313;51.018;13.742;2023-11-21T00:53:55;98969.44;;;9.03;74.13
75699;BME280;64313;51.018;13.742;2023-11-21T00:56:20;98968.63;;;9.02;74.75
75699;BME280;64313;51.018;13.742;2023-11-21T00:58:45;98969.44;;;9.03;74.16
75699;BME280;64313;51.018;13.742;2023-11-21T01:01:15;98973.94;;;9.02;74.54
75699;BME280;64313;51.018;13.742;2023-11-21T01:03:40;98971.28;;;9.02;74.39
75699;BME280;64313;51.018;13.742;2023-11-21T01:06:06;98965.16;;;9.02;74.00
75699;BME280;64313;51.018;13.742;2023-11-21T01:08:32;98967.81;;;9.02;74.77
75699;BME280;64313;51.018;13.742;2023-11-21T01:10:57;98976.59;;;9.02;74.43
75699;BME280;64313;51.018;13.742;2023-11-21T01:13:23;98981.91;;;9.02;74.42
75699;BME280;64313;51.018;13.742;2023-11-21T01:15:48;98975.78;;;9.02;74.48
75699;BME280;64313;51.018;13.742;2023-11-21T01:18:13;98974.94;;;9.01;74.28
75699;BME280;64313;51.018;13.742;2023-11-21T01:20:39;98980.25;;;9.01;74.60
75699;BME280;64313;51.018;13.742;2023-11-21T01:23:05;98979.25;;;9.02;74.35
75699;BME280;64313;51.018;13.742;2023-11-21T01:25:30;98977.59;;;9.01;74.58
75699;BME280;64313;51.018;13.742;2023-11-21T01:27:56;98975.78;;;9.02;74.60
75699;BME280;64313;51.018;13.742;2023-11-21T01:30:21;98984.75;;;9.01;74.33
75699;BME280;64313;51.018;13.742;2023-11-21T01:32:47;98980.25;;;9.01;74.28
75699;BME280;64313;51.018;13.742;2023-11-21T01:35:12;98978.63;;;9.00;74.63
75699;BME280;64313;51.018;13.742;2023-11-21T01:37:38;98978.63;;;9.00;74.32
75699;BME280;64313;51.018;13.742;2023-11-21T01:40:04;98981.28;;;9.00;74.58
75699;BME280;64313;51.018;13.742;2023-11-21T01:42:35;98970.66;;;9.00;74.24
75699;BME280;64313;51.018;13.742;2023-11-21T01:45:01;98985.81;;;9.00;74.71
75699;BME280;64313;51.018;13.742;2023-11-21T01:47:33;98973.53;;;8.99;74.38
75699;BME280;64313;51.018;13.742;2023-11-21T01:50:01;98979.91;;;8.98;74.50
75699;BME280;64313;51.018;13.742;2023-11-21T01:52:27;98981.75;;;8.97;74.57
75699;BME280;64313;51.018;13.742;2023-11-21T01:54:54;98979.31;;;8.95;74.67
75699;BME280;64313;51.018;13.742;2023-11-21T01:57:20;98975.59;;;8.97;74.44
75699;BME280;64313;51.018;13.742;2023-11-21T01:59:47;98983.78;;;8.95;74.40
75699;BME280;64313;51.018;13.742;2023-11-21T02:02:13;98981.13;;;8.95;74.32
75699;BME280;64313;51.018;13.742;2023-11-21T02:04:39;98975.81;;;8.95;75.00
75699;BME280;64313;51.018;13.742;2023-11-21T02:07:04;98981.97;;;8.95;74.77
75699;BME280;64313;51.018;13.742;2023-11-21T02:09:32;98976.03;;;8.93;74.64
75699;BME280;64313;51.018;13.742;2023-11-21T02:11:59;98969.91;;;8.93;74.75
75699;BME280;64313;51.018;13.742;2023-11-21T02:14:25;98979.50;;;8.94;74.26
75699;BME280;64313;51.018;13.742;2023-11-21T02:16:52;98982.38;;;8.92;74.30
75699;BME280;64313;51.018;13.742;2023-11-21T02:19:19;98988.72;;;8.91;74.42
75699;BME280;64313;51.018;13.742;2023-11-21T02:21:49;98990.34;;;8.92;74.89
75699;BME280;64313;51.018;13.742;2023-11-21T02:24:15;98995.66;;;8.92;74.07
75699;BME280;64313;51.018;13.742;2023-11-21T02:26:42;98994.84;;;8.92;74.18
75699;BME280;64313;51.018;13.742;2023-11-21T02:29:07;98994.84;;;8.92;74.30
75699;BME280;64313;51.018;13.742;2023-11-21T02:31:36;98988.72;;;8.91;73.97
75699;BME280;64313;51.018;13.742;2023-11-21T02:34:02;98989.53;;;8.92;74.06
75699;BME280;64313;51.018;13.742;2023-11-21T02:36:28;98987.09;;;8.90;73.52
75699;BME280;64313;51.018;13.742;2023-11-21T02:38:53;98989.97;;;8.89;74.07
75699;BME280;64313;51.018;13.742;2023-11-21T02:41:18;98990.78;;;8.89;74.02
75699;BME280;64313;51.018;13.742;2023-11-21T02:43:44;98992.84;;;8.87;73.84
75699;BME280;64313;51.018;13.742;2023-11-21T02:46:09;98993.88;;;8.86;73.71
75699;BME280;64313;51.018;13.742;2023-11-21T02:48:34;98993.88;;;8.86;74.08
75699;BME280;64313;51.018;13.742;2023-11-21T02:51:01;98997.56;;;8.85;73.99
75699;BME280;64313;51.018;13.742;2023-11-21T02:53:26;98992.47;;;8.84;73.68
75699;BME280;64313;51.018;13.742;2023-11-21T02:55:51;98989.00;;;8.83;73.72
75699;BME280;64313;51.018;13.742;2023-11-21T02:58:18;98991.66;;;8.83;73.53
75699;BME280;64313;51.018;13.742;2023-11-21T03:00:43;98992.88;;;8.81;73.79
75699;BME280;64313;51.018;13.742;2023-11-21T03:03:09;98991.25;;;8.80;74.17
75699;BME280;64313;51.018;13.742;2023-11-21T03:05:34;98991.25;;;8.80;73.67
75699;BME280;64313;51.018;13.742;2023-11-21T03:08:01;99003.94;;;8.78;73.89
75699;BME280;64313;51.018;13.742;2023-11-21T03:10:26;99006.84;;;8.76;73.40
75699;BME280;64313;51.018;13.742;2023-11-21T03:12:52;99006.22;;;8.74;73.92
75699;BME280;64313;51.018;13.742;2023-11-21T03:15:17;99007.25;;;8.73;73.85
75699;BME280;64313;51.018;13.742;2023-11-21T03:17:43;99007.47;;;8.72;73.72
75699;BME280;64313;51.018;13.742;2023-11-21T03:20:08;99003.38;;;8.69;73.97
75699;BME280;64313;51.018;13.742;2023-11-21T03:22:37;99011.34;;;8.69;73.57
75699;BME280;64313;51.018;13.742;2023-11-21T03:25:04;99017.69;;;8.68;73.92
75699;BME280;64313;51.018;13.742;2023-11-21T03:27:30;99015.03;;;8.68;73.94
75699;BME280;64313;51.018;13.742;2023-11-21T03:29:55;99012.81;;;8.65;73.59
75699;BME280;64313;51.018;13.742;2023-11-21T03:32:20;99013.84;;;8.64;74.19
75699;BME280;64313;51.018;13.742;2023-11-21T03:34:56;99007.72;;;8.63;74.10
75699;BME280;64313;51.018;13.742;2023-11-21T03:37:22;99010.38;;;8.63;74.16
75699;BME280;64313;51.018;13.742;2023-11-21T03:39:48;99014.25;;;8.61;73.82
75699;BME280;64313;51.018;13.742;2023-11-21T03:42:13;99012.63;;;8.60;73.97
75699;BME280;64313;51.018;13.742;2023-11-21T03:44:39;99016.31;;;8.59;74.25
75699;BME280;64313;51.018;13.742;2023-11-21T03:47:04;99014.69;;;8.58;73.98
75699;BME280;64313;51.018;13.742;2023-11-21T03:49:30;99020.19;;;8.56;73.87
75699;BME280;64313;51.018;13.742;2023-11-21T03:51:56;99027.34;;;8.56;74.08
75699;BME280;64313;51.018;13.742;2023-11-21T03:54:22;99024.09;;;8.54;74.53
75699;BME280;64313;51.018;13.742;2023-11-21T03:56:47;99026.97;;;8.52;74.45
75699;BME280;64313;51.018;13.742;2023-11-21T03:59:14;99023.50;;;8.52;74.00
75699;BME280;64313;51.018;13.742;2023-11-21T04:01:39;99023.72;;;8.50;74.42
75699;BME280;64313;51.018;13.742;2023-11-21T04:04:05;99025.53;;;8.50;73.69
75699;BME280;64313;51.018;13.742;2023-11-21T04:06:30;99025.75;;;8.48;74.57
75699;BME280;64313;51.018;13.742;2023-11-21T04:08:58;99024.94;;;8.48;74.37
75699;BME280;64313;51.018;13.742;2023-11-21T04:11:23;99027.00;;;8.46;74.09
75699;BME280;64313;51.018;13.742;2023-11-21T04:13:49;99028.84;;;8.45;74.19
75699;BME280;64313;51.018;13.742;2023-11-21T04:16:15;99026.38;;;8.44;74.09
75699;BME280;64313;51.018;13.742;2023-11-21T04:18:40;99038.03;;;8.43;74.73
75699;BME280;64313;51.018;13.742;2023-11-21T04:21:06;99036.41;;;8.41;74.24
75699;BME280;64313;51.018;13.742;2023-11-21T04:23:32;99031.31;;;8.40;74.57
75699;BME280;64313;51.018;13.742;2023-11-21T04:25:57;99034.19;;;8.38;74.93
75699;BME280;64313;51.018;13.742;2023-11-21T04:28:23;99037.88;;;8.37;74.52
75699;BME280;64313;51.018;13.742;2023-11-21T04:30:49;99037.03;;;8.37;74.57
75699;BME280;64313;51.018;13.742;2023-11-21T04:33:15;99040.53;;;8.37;75.15
75699;BME280;64313;51.018;13.742;2023-11-21T04:35:41;99042.34;;;8.37;75.29
75699;BME280;64313;51.018;13.742;2023-11-21T04:38:06;99038.06;;;8.36;74.77
75699;BME280;64313;51.018;13.742;2023-11-21T04:40:31;99044.38;;;8.35;74.87
75699;BME280;64313;51.018;13.742;2023-11-21T04:42:57;99047.03;;;8.35;74.85
75699;BME280;64313;51.018;13.742;2023-11-21T04:45:22;99050.72;;;8.34;74.89
75699;BME280;64313;51.018;13.742;2023-11-21T04:47:48;99056.03;;;8.34;75.17
75699;BME280;64313;51.018;13.742;2023-11-21T04:50:13;99056.25;;;8.32;74.93
75699;BME280;64313;51.018;13.742;2023-11-21T04:52:39;99063.41;;;8.32;75.42
75699;BME280;64313;51.018;13.742;2023-11-21T04:55:04;99059.72;;;8.33;75.33
75699;BME280;64313;51.018;13.742;2023-11-21T04:57:31;99063.19;;;8.33;75.12
75699;BME280;64313;51.018;13.742;2023-11-21T04:59:57;99065.03;;;8.33;75.07
75699;BME280;64313;51.018;13.742;2023-11-21T05:02:22;99057.88;;;8.33;75.10
75699;BME280;64313;51.018;13.742;2023-11-21T05:04:48;99060.75;;;8.32;74.84
75699;BME280;64313;51.018;13.742;2023-11-21T05:07:13;99064.22;;;8.32;75.43
75699;BME280;64313;51.018;13.742;2023-11-21T05:09:42;99063.41;;;8.32;75.26
75699;BME280;64313;51.018;13.742;2023-11-21T05:12:09;99064.44;;;8.31;75.79
75699;BME280;64313;51.018;13.742;2023-11-21T05:14:35;99069.53;;;8.32;75.96
75699;BME280;64313;51.018;13.742;2023-11-21T05:17:00;99069.53;;;8.32;75.66
75699;BME280;64313;51.018;13.742;2023-11-21T05:19:26;99085.47;;;8.32;75.40
75699;BME280;64313;51.018;13.742;2023-11-21T05:21:52;99077.50;;;8.32;75.51
75699;BME280;64313;51.018;13.742;2023-11-21T05:24:17;99079.13;;;8.33;75.76
75699;BME280;64313;51.018;13.742;2023-11-21T05:26:42;99093.22;;;8.34;75.64
75699;BME280;64313;51.018;13.742;2023-11-21T05:29:08;99085.25;;;8.34;75.52
75699;BME280;64313;51.018;13.742;2023-11-21T05:31:36;99085.47;;;8.32;75.16
75699;BME280;64313;51.018;13.742;2023-11-21T05:34:01;99087.91;;;8.34;75.35
75699;BME280;64313;51.018;13.742;2023-11-21T05:36:26;99089.75;;;8.33;75.83
75699;BME280;64313;51.018;13.742;2023-11-21T05:38:52;99097.72;;;8.33;75.79
75699;BME280;64313;51.018;13.742;2023-11-21T05:41:17;99098.53;;;8.34;75.56
75699;BME280;64313;51.018;13.742;2023-11-21T05:43:43;99097.72;;;8.33;75.47
75699;BME280;64313;51.018;13.742;2023-11-21T05:46:09;99101.41;;;8.32;75.35
75699;BME280;64313;51.018;13.742;2023-11-21T05:48:34;99104.06;;;8.32;75.56
75699;BME280;64313;51.018;13.742;2023-11-21T05:51:03;99099.78;;;8.31;75.60
75699;BME280;64313;51.018;13.742;2023-11-21T05:53:29;99101.81;;;8.29;75.26
75699;BME280;64313;51.018;13.742;2023-11-21T05:55:55;99101.63;;;8.31;75.77
75699;BME280;64313;51.018;13.742;2023-11-21T05:58:20;99115.72;;;8.31;75.58
75699;BME280;64313;51.018;13.742;2023-11-21T06:00:45;99101.63;;;8.31;75.73
75699;BME280;64313;51.018;13.742;2023-11-21T06:03:11;99101.81;;;8.29;75.64
75699;BME280;64313;51.018;13.742;2023-11-21T06:05:36;99109.78;;;8.29;75.84
75699;BME280;64313;51.018;13.742;2023-11-21T06:08:02;99113.25;;;8.30;75.83
75699;BME280;64313;51.018;13.742;2023-11-21T06:10:28;99106.09;;;8.30;75.26
75699;BME280;64313;51.018;13.742;2023-11-21T06:12:53;99114.06;;;8.30;75.44
75699;BME280;64313;51.018;13.742;2023-11-21T06:15:19;99124.69;;;8.30;75.76
75699;BME280;64313;51.018;13.742;2023-11-21T06:17:46;99126.53;;;8.30;75.74
75699;BME280;64313;51.018;13.742;2023-11-21T06:20:15;99122.25;;;8.29;75.44
75699;BME280;64313;51.018;13.742;2023-11-21T06:22:42;99123.28;;;8.28;75.99
75699;BME280;64313;51.018;13.742;2023-11-21T06:25:08;99129.63;;;8.27;75.79
75699;BME280;64313;51.018;13.742;2023-11-21T06:27:42;99123.50;;;8.26;75.77
75699;BME280;64313;51.018;13.742;2023-11-21T06:30:08;99131.47;;;8.26;75.66
75699;BME280;64313;51.018;13.742;2023-11-21T06:32:37;99129.00;;;8.25;76.08
75699;BME280;64313;51.018;13.742;2023-11-21T06:35:04;99131.66;;;8.25;75.37
75699;BME280;64313;51.018;13.742;2023-11-21T06:37:30;99142.28;;;8.25;75.93
75699;BME280;64313;51.018;13.742;2023-11-21T06:39:57;99145.13;;;8.23;75.93
75699;BME280;64313;51.018;13.742;2023-11-21T06:42:23;99148.81;;;8.22;75.67
75699;BME280;64313;51.018;13.742;2023-11-21T06:44:49;99145.34;;;8.22;75.79
75699;BME280;64313;51.018;13.742;2023-11-21T06:47:17;99142.09;;;8.20;76.13
75699;BME280;64313;51.018;13.742;2023-11-21T06:49:43;99139.22;;;8.21;76.18
75699;BME280;64313;51.018;13.742;2023-11-21T06:52:08;99136.78;;;8.20;76.42
75699;BME280;64313;51.018;13.742;2023-11-21T06:54:34;99141.88;;;8.21;76.19
75699;BME280;64313;51.018;13.742;2023-11-21T06:57:00;99134.13;;;8.20;76.08
75699;BME280;64313;51.018;13.742;2023-11-21T06:59:25;99144.75;;;8.20;75.98
75699;BME280;64313;51.018;13.742;2023-11-21T07:01:50;99143.13;;;8.19;76.31
75699;BME280;64313;51.018;13.742;2023-11-21T07:04:16;99148.44;;;8.19;76.21
75699;BME280;64313;51.018;13.742;2023-11-21T07:06:41;99151.91;;;8.19;76.09
75699;BME280;64313;51.018;13.742;2023-11-21T07:09:08;99156.41;;;8.19;76.38
75699;BME280;64313;51.018;13.742;2023-11-21T07:11:35;99151.91;;;8.19;76.34
75699;BME280;64313;51.018;13.742;2023-11-21T07:14:01;99153.13;;;8.17;76.78
75699;BME280;64313;51.018;13.742;2023-11-21T07:16:34;99157.63;;;8.16;76.47
75699;BME280;64313;51.018;13.742;2023-11-21T07:19:00;99154.94;;;8.16;77.04
75699;BME280;64313;51.018;13.742;2023-11-21T07:21:25;99159.25;;;8.17;77.34
75699;BME280;64313;51.018;13.742;2023-11-21T07:23:50;99168.03;;;8.18;77.94
75699;BME280;64313;51.018;13.742;2023-11-21T07:26:16;99160.25;;;8.16;77.25
75699;BME280;64313;51.018;13.742;2023-11-21T07:28:42;99165.56;;;8.16;77.80
75699;BME280;64313;51.018;13.742;2023-11-21T07:31:07;99174.19;;;8.18;77.56
75699;BME280;64313;51.018;13.742;2023-11-21T07:33:33;99176.63;;;8.20;77.63
75699;BME280;64313;51.018;13.742;2023-11-21T07:35:58;99177.44;;;8.20;78.08
75699;BME280;64313;51.018;13.742;2023-11-21T07:38:23;99178.25;;;8.21;77.25
75699;BME280;64313;51.018;13.742;2023-11-21T07:40:49;99180.09;;;8.20;78.17
75699;BME280;64313;51.018;13.742;2023-11-21T07:43:14;99180.09;;;8.20;77.86
75699;BME280;64313;51.018;13.742;2023-11-21T07:45:40;99185.19;;;8.22;78.24
75699;BME280;64313;51.018;13.742;2023-11-21T07:48:07;99190.50;;;8.22;77.50
75699;BME280;64313;51.018;13.742;2023-11-21T07:50:32;99195.00;;;8.21;78.45
75699;BME280;64313;51.018;13.742;2023-11-21T07:52:58;99193.97;;;8.22;78.13
75699;BME280;64313;51.018;13.742;2023-11-21T07:55:23;99193.16;;;8.22;77.92
75699;BME280;64313;51.018;13.742;2023-11-21T07:57:50;99189.47;;;8.23;77.86
75699;BME280;64313;51.018;13.742;2023-11-21T08:00:15;99198.25;;;8.23;78.20
75699;BME280;64313;51.018;13.742;2023-11-21T08:02:41;99191.91;;;8.24;78.22
75699;BME280;64313;51.018;13.742;2023-11-21T08:05:11;99197.22;;;8.24;78.45
75699;BME280;64313;51.018;13.742;2023-11-21T08:07:37;99198.09;;;8.25;78.92
75699;BME280;64313;51.018;13.742;2023-11-21T08:10:03;99196.84;;;8.27;78.26
75699;BME280;64313;51.018;13.742;2023-11-21T08:12:30;99194.78;;;8.29;78.34
75699;BME280;64313;51.018;13.742;2023-11-21T08:14:55;99198.06;;;8.31;78.40
75699;BME280;64313;51.018;13.742;2023-11-21T08:17:21;99200.72;;;8.31;78.55
75699;BME280;64313;51.018;13.742;2023-11-21T08:19:46;99203.19;;;8.33;78.48
75699;BME280;64313;51.018;13.742;2023-11-21T08:22:15;99200.72;;;8.31;78.21
75699;BME280;64313;51.018;13.742;2023-11-21T08:24:43;99201.72;;;8.30;79.10
75699;BME280;64313;51.018;13.742;2023-11-21T08:27:08;99204.38;;;8.30;78.97
75699;BME280;64313;51.018;13.742;2023-11-21T08:29:34;99204.59;;;8.29;79.77
75699;BME280;64313;51.018;13.742;2023-11-21T08:32:01;99215.22;;;8.29;79.75
75699;BME280;64313;51.018;13.742;2023-11-21T08:34:27;99214.84;;;8.25;79.78
75699;BME280;64313;51.018;13.742;2023-11-21T08:36:54;99218.47;;;8.24;80.17
75699;BME280;64313;51.018;13.742;2023-11-21T08:39:19;99214.19;;;8.23;80.13
75699;BME280;64313;51.018;13.742;2023-11-21T08:41:44;99207.25;;;8.22;80.66
75699;BME280;64313;51.018;13.742;2023-11-21T08:44:10;99204.59;;;8.22;80.73
75699;BME280;64313;51.018;13.742;2023-11-21T08:46:36;99207.47;;;8.21;80.74
75699;BME280;64313;51.018;13.742;2023-11-21T08:49:02;99205.63;;;8.21;80.69
75699;BME280;64313;51.018;13.742;2023-11-21T08:51:27;99212.78;;;8.21;80.68
75699;BME280;64313;51.018;13.742;2023-11-21T08:53:52;99210.94;;;8.21;81.03
75699;BME280;64313;51.018;13.742;2023-11-21T08:56:18;99217.88;;;8.22;81.22
75699;BME280;64313;51.018;13.742;2023-11-21T08:58:45;99221.56;;;8.21;80.96
75699;BME280;64313;51.018;13.742;2023-11-21T09:01:12;99211.97;;;8.20;81.60
75699;BME280;64313;51.018;13.742;2023-11-21T09:03:37;99217.28;;;8.20;81.33
75699;BME280;64313;51.018;13.742;2023-11-21T09:06:03;99214.63;;;8.20;81.99
75699;BME280;64313;51.018;13.742;2023-11-21T09:08:29;99217.28;;;8.20;81.65
75699;BME280;64313;51.018;13.742;2023-11-21T09:10:55;99228.94;;;8.19;81.63
75699;BME280;64313;51.018;13.742;2023-11-21T09:13:20;99229.97;;;8.18;82.44
75699;BME280;64313;51.018;13.742;2023-11-21T09:15:45;99233.81;;;8.15;82.43
75699;BME280;64313;51.018;13.742;2023-11-21T09:18:14;99233.00;;;8.15;82.44
75699;BME280;64313;51.018;13.742;2023-11-21T09:20:40;99242.59;;;8.16;82.30
75699;BME280;64313;51.018;13.742;2023-11-21T09:23:06;99238.31;;;8.15;82.07
75699;BME280;64313;51.018;13.742;2023-11-21T09:25:32;99249.97;;;8.14;82.07
75699;BME280;64313;51.018;13.742;2023-11-21T09:27:58;99235.88;;;8.13;82.22
75699;BME280;64313;51.018;13.742;2023-11-21T09:30:23;99241.19;;;8.13;81.97
75699;BME280;64313;51.018;13.742;2023-11-21T09:32:50;99249.34;;;8.12;82.05
75699;BME280;64313;51.018;13.742;2023-11-21T09:35:15;99256.31;;;8.13;82.38
75699;BME280;64313;51.018;13.742;2023-11-21T09:37:45;99255.50;;;8.12;82.27
75699;BME280;64313;51.018;13.742;2023-11-21T09:40:11;99250.34;;;8.11;82.22
75699;BME280;64313;51.018;13.742;2023-11-21T09:42:50;99257.72;;;8.09;82.13
75699;BME280;64313;51.018;13.742;2023-11-21T09:45:25;99257.09;;;8.07;82.69
75699;BME280;64313;51.018;13.742;2023-11-21T09:47:53;99260.78;;;8.06;82.85
75699;BME280;64313;51.018;13.742;2023-11-21T09:50:21;99263.84;;;8.03;82.71
75699;BME280;64313;51.018;13.742;2023-11-21T09:55:35;99270.97;;;8.02;82.59
75699;BME280;64313;51.018;13.742;2023-11-21T09:58:04;99265.28;;;7.99;82.48
75699;BME280;64313;51.018;13.742;2023-11-21T10:00:33;99274.25;;;7.98;82.32
75699;BME280;64313;51.018;13.742;2023-11-21T10:02:59;99282.63;;;7.95;81.41
75699;BME280;64313;51.018;13.742;2023-11-21T10:05:25;99283.84;;;7.92;81.55
75699;BME280;64313;51.018;13.742;2023-11-21T10:07:50;99281.78;;;7.87;81.50
75699;BME280;64313;51.018;13.742;2023-11-21T10:10:18;99291.16;;;7.83;81.22
75699;BME280;64313;51.018;13.742;2023-11-21T10:12:49;99305.88;;;7.79;81.78
75699;BME280;64313;51.018;13.742;2023-11-21T10:15:15;99303.59;;;7.76;81.65
75699;BME280;64313;51.018;13.742;2023-11-21T10:17:42;99300.72;;;7.71;81.52
75699;BME280;64313;51.018;13.742;2023-11-21T10:20:11;99311.09;;;7.66;80.42
75699;BME280;64313;51.018;13.742;2023-11-21T10:22:41;99310.09;;;7.60;80.54
75699;BME280;64313;51.018;13.742;2023-11-21T10:25:10;99318.63;;;7.56;80.94
75699;BME280;64313;51.018;13.742;2023-11-21T10:27:37;99320.25;;;7.50;80.94
75699;BME280;64313;51.018;13.742;2023-11-21T10:30:07;99321.22;;;7.43;80.65
75699;BME280;64313;51.018;13.742;2023-11-21T10:32:40;99331.16;;;7.34;80.01
75699;BME280;64313;51.018;13.742;2023-11-21T10:35:09;99327.50;;;7.28;80.15
75699;BME280;64313;51.018;13.742;2023-11-21T10:37:37;99332.75;;;7.22;79.87
75699;BME280;64313;51.018;13.742;2023-11-21T10:40:07;99336.59;;;7.19;80.42
75699;BME280;64313;51.018;13.742;2023-11-21T10:42:33;99337.38;;;7.13;79.46
75699;BME280;64313;51.018;13.742;2023-11-21T10:44:58;99344.28;;;7.07;80.08
75699;BME280;64313;51.018;13.742;2023-11-21T10:47:24;99348.16;;;7.05;79.45
75699;BME280;64313;51.018;13.742;2023-11-21T10:49:49;99349.38;;;7.02;79.62
75699;BME280;64313;51.018;13.742;2023-11-21T10:52:14;99348.09;;;6.98;80.25
75699;BME280;64313;51.018;13.742;2023-11-21T10:54:43;99358.09;;;6.96;80.39
75699;BME280;64313;51.018;13.742;2023-11-21T10:57:09;99358.66;;;6.92;80.79
75699;BME280;64313;51.018;13.742;2023-11-21T10:59:35;99358.84;;;6.90;80.23
75699;BME280;64313;51.018;13.742;2023-11-21T11:02:04;99354.56;;;6.89;80.88
75699;BME280;64313;51.018;13.742;2023-11-21T11:04:38;99356.78;;;6.86;80.95
75699;BME280;64313;51.018;13.742;2023-11-21T11:07:05;99358.81;;;6.84;81.31
75699;BME280;64313;51.018;13.742;2023-11-21T11:09:34;99359.19;;;6.81;80.83
75699;BME280;64313;51.018;13.742;2023-11-21T11:12:02;99376.28;;;6.78;79.78
75699;BME280;64313;51.018;13.742;2023-11-21T11:14:28;99374.59;;;6.70;79.75
75699;BME280;64313;51.018;13.742;2023-11-21T11:16:54;99384.94;;;6.65;78.78
75699;BME280;64313;51.018;13.742;2023-11-21T11:19:23;99381.22;;;6.60;79.07
75699;BME280;64313;51.018;13.742;2023-11-21T11:25:02;99383.63;;;6.55;79.12
75699;BME280;64313;51.018;13.742;2023-11-21T11:27:56;99390.56;;;6.56;79.17
75699;BME280;64313;51.018;13.742;2023-11-21T11:30:50;99392.38;;;6.55;79.02
75699;BME280;64313;51.018;13.742;2023-11-21T11:33:38;99393.78;;;6.51;78.15
75699;BME280;64313;51.018;13.742;2023-11-21T11:38:48;99394.34;;;6.46;78.41
75699;BME280;64313;51.018;13.742;2023-11-21T11:41:28;99394.53;;;6.45;79.00
75699;BME280;64313;51.018;13.742;2023-11-21T11:43:56;99392.72;;;6.45;78.92
75699;BME280;64313;51.018;13.742;2023-11-21T11:46:40;99396.19;;;6.46;78.30
75699;BME280;64313;51.018;13.742;2023-11-21T11:49:06;99403.31;;;6.45;78.77
75699;BME280;64313;51.018;13.742;2023-11-21T11:51:33;99397.56;;;6.42;77.86
75699;BME280;64313;51.018;13.742;2023-11-21T11:54:05;99404.06;;;6.39;78.61
75699;BME280;64313;51.018;13.742;2023-11-21T11:56:34;99410.38;;;6.38;78.44
75699;BME280;64313;51.018;13.742;2023-11-21T11:59:02;99406.06;;;6.37;77.57
75699;BME280;64313;51.018;13.742;2023-11-21T12:01:28;99409.72;;;6.36;78.34
75699;BME280;64313;51.018;13.742;2023-11-21T12:06:46;99407.00;;;6.30;77.41
75699;BME280;64313;51.018;13.742;2023-11-21T12:09:21;99412.28;;;6.30;78.01
75699;BME280;64313;51.018;13.742;2023-11-21T12:11:48;99416.97;;;6.28;77.45
75699;BME280;64313;51.018;13.742;2023-11-21T12:14:16;99420.81;;;6.25;77.23
75699;BME280;64313;51.018;13.742;2023-11-21T12:16:42;99422.00;;;6.22;78.14
75699;BME280;64313;51.018;13.742;2023-11-21T12:19:09;99436.06;;;6.23;77.50
75699;BME280;64313;51.018;13.742;2023-11-21T12:21:36;99439.72;;;6.22;77.98
75699;BME280;64313;51.018;13.742;2023-11-21T12:24:02;99443.19;;;6.22;77.59
75699;BME280;64313;51.018;13.742;2023-11-21T12:26:29;99439.91;;;6.20;77.02
75699;BME280;64313;51.018;13.742;2023-11-21T12:28:54;99438.44;;;6.18;77.04
75699;BME280;64313;51.018;13.742;2023-11-21T12:31:23;99445.94;;;6.14;76.29
75699;BME280;64313;51.018;13.742;2023-11-21T12:33:50;99449.78;;;6.12;76.54
75699;BME280;64313;51.018;13.742;2023-11-21T12:36:16;99462.38;;;6.10;76.18
75699;BME280;64313;51.018;13.742;2023-11-21T12:38:41;99456.47;;;6.08;76.85
75699;BME280;64313;51.018;13.742;2023-11-21T12:41:07;99453.81;;;6.08;76.89
75699;BME280;64313;51.018;13.742;2023-11-21T12:43:33;99454.00;;;6.06;76.40
75699;BME280;64313;51.018;13.742;2023-11-21T12:46:10;99460.47;;;6.04;76.95
75699;BME280;64313;51.018;13.742;2023-11-21T12:48:41;99460.47;;;6.04;77.78
75699;BME280;64313;51.018;13.742;2023-11-21T12:51:11;99464.59;;;6.06;78.42
75699;BME280;64313;51.018;13.742;2023-11-21T12:53:40;99463.56;;;6.07;78.41
75699;BME280;64313;51.018;13.742;2023-11-21T12:56:10;99468.69;;;6.09;78.59
75699;BME280;64313;51.018;13.742;2023-11-21T12:58:44;99472.97;;;6.10;78.27
75699;BME280;64313;51.018;13.742;2023-11-21T13:01:13;99479.06;;;6.10;79.33
75699;BME280;64313;51.018;13.742;2023-11-21T13:03:43;99482.09;;;6.07;78.72
75699;BME280;64313;51.018;13.742;2023-11-21T13:06:10;99479.47;;;6.07;78.50
75699;BME280;64313;51.018;13.742;2023-11-21T13:08:37;99487.41;;;6.07;78.50